Time;durP1;ratioP1;P1;durP2;ratioP2;P2;SDS_P1;SDS_P2;PMS_P1;PMS_P2;Temp;Humidity;BMP_temperature;BMP_pressure;BME280_temperature;BME280_humidity;BME280_pressure;Samples;Min_cycle;Max_cycle;Signal;HPM_P1;HPM_P2
2022/08/11 00:01:27;;;;;;;7.57;5.00;;;17.60;99.90;;;;;;5103898;27;20701;-69
2022/08/11 00:04:03;;;;;;;7.43;5.00;;;17.60;99.90;;;;;;5068590;28;20043;-69
2022/08/11 00:06:32;;;;;;;7.93;5.28;;;17.60;99.90;;;;;;5064560;28;20043;-68
2022/08/11 00:08:59;;;;;;;11.07;5.18;;;17.60;99.90;;;;;;5088432;28;20047;-69
2022/08/11 00:11:47;;;;;;;5.63;4.60;;;17.60;99.90;;;;;;5060025;28;20565;-69
2022/08/11 00:14:19;;;;;;;9.10;4.97;;;17.50;99.90;;;;;;5071360;28;20189;-69
2022/08/11 00:16:55;;;;;;;5.10;4.40;;;17.50;99.90;;;;;;5069824;28;20046;-69
2022/08/11 00:19:23;;;;;;;8.38;5.30;;;17.60;99.90;;;;;;5070958;28;20799;-69
2022/08/11 00:21:50;;;;;;;7.63;4.95;;;17.60;99.90;;;;;;5088147;28;20031;-69
2022/08/11 00:24:16;;;;;;;9.27;5.13;;;17.60;99.90;;;;;;5089184;28;20075;-69
2022/08/11 00:26:48;;;;;;;7.70;5.03;;;17.60;99.90;;;;;;5088240;28;20097;-68
2022/08/11 00:29:15;;;;;;;9.02;5.05;;;17.50;99.90;;;;;;5087904;28;20051;-69
2022/08/11 00:31:51;;;;;;;7.57;4.95;;;17.60;99.90;;;;;;5063990;28;20523;-69
2022/08/11 00:34:20;;;;;;;7.55;4.70;;;17.60;99.90;;;;;;5087529;28;20297;-68
2022/08/11 00:36:54;;;;;;;7.47;5.47;;;17.50;99.90;;;;;;5072266;28;20392;-69
2022/08/11 00:39:22;;;;;;;6.93;4.70;;;17.60;99.90;;;;;;5103397;27;20059;-68
2022/08/11 00:41:59;;;;;;;6.55;5.35;;;17.60;99.90;;;;;;5068315;28;20481;-68
2022/08/11 00:44:44;;;;;;;9.50;5.50;;;17.50;99.90;;;;;;5086970;28;20421;-68
2022/08/11 00:47:35;;;;;;;9.07;5.43;;;17.60;99.90;;;;;;5070498;28;20044;-69
2022/08/11 00:50:41;;;;;;;8.40;5.50;;;17.60;99.90;;;;;;5071435;28;20222;-68
2022/08/11 00:53:32;;;;;;;9.75;6.03;;;17.60;99.90;;;;;;5007159;28;20244;-68
2022/08/11 00:56:42;;;;;;;11.20;5.88;;;17.50;99.90;;;;;;5094999;27;20131;-68
2022/08/11 00:59:34;;;;;;;11.48;6.00;;;17.50;99.90;;;;;;5088745;28;20558;-68
2022/08/11 01:02:37;;;;;;;10.65;6.35;;;17.50;99.90;;;;;;5062858;28;20319;-69
2022/08/11 01:05:38;;;;;;;10.77;6.03;;;17.40;99.90;;;;;;5084851;28;20512;-69
2022/08/11 01:08:13;;;;;;;10.43;6.82;;;17.50;99.90;;;;;;5047063;28;20356;-70
2022/08/11 01:10:39;;;;;;;8.52;6.15;;;17.50;99.90;;;;;;5087830;28;20608;-68
2022/08/11 01:13:42;;;;;;;9.73;7.03;;;17.30;99.90;;;;;;5086208;28;20046;-68
2022/08/11 01:16:11;;;;;;;12.00;8.15;;;17.50;99.90;;;;;;5087002;28;20267;-69
2022/08/11 01:19:16;;;;;;;10.77;7.93;;;17.40;99.90;;;;;;5087519;28;20101;-69
2022/08/11 01:21:51;;;;;;;9.95;8.05;;;17.40;99.90;;;;;;5072108;28;20060;-68
2022/08/11 01:24:56;;;;;;;12.30;9.50;;;17.40;99.90;;;;;;5087053;28;20146;-69
2022/08/11 01:27:40;;;;;;;14.82;10.23;;;17.30;99.90;;;;;;5087296;28;20047;-69
2022/08/11 01:30:38;;;;;;;16.88;10.75;;;17.30;99.90;;;;;;5088396;28;20401;-69
2022/08/11 01:33:24;;;;;;;13.63;10.43;;;17.40;99.90;;;;;;5085484;28;20090;-69
2022/08/11 01:36:38;;;;;;;13.88;11.82;;;17.40;99.90;;;;;;5086374;28;20092;-68
2022/08/11 01:39:07;;;;;;;11.27;10.05;;;17.30;99.90;;;;;;5069737;28;20051;-68
2022/08/11 01:45:02;;;;;;;17.00;11.75;;;17.40;99.90;;;;;;5075842;28;20138;-69
2022/08/11 01:47:50;;;;;;;16.05;11.50;;;17.30;99.90;;;;;;5069550;28;20036;-69
2022/08/11 01:50:47;;;;;;;17.75;11.65;;;17.40;99.90;;;;;;5061607;28;20032;-69
2022/08/11 01:53:45;;;;;;;12.82;11.27;;;17.30;99.90;;;;;;5086479;28;20160;-69
2022/08/11 01:56:29;;;;;;;13.63;12.13;;;17.30;99.90;;;;;;5086544;28;20043;-69
2022/08/11 01:59:14;;;;;;;16.02;11.57;;;17.30;99.90;;;;;;5086135;28;20409;-69
2022/08/11 02:02:04;;;;;;;19.20;13.02;;;17.30;99.90;;;;;;5103679;28;20040;-69
2022/08/11 02:04:57;;;;;;;16.63;13.05;;;17.20;99.90;;;;;;5086608;28;20394;-69
2022/08/11 02:07:32;;;;;;;20.30;13.98;;;17.30;99.90;;;;;;5087107;28;20115;-70
2022/08/11 02:13:28;;;;;;;34.47;26.00;;;17.20;99.90;;;;;;5087098;28;20051;-69
2022/08/11 02:16:09;;;;;;;51.88;40.15;;;17.10;99.90;;;;;;5070511;28;20086;-69
2022/08/11 02:24:48;;;;;;;71.50;55.28;;;17.10;99.90;;;;;;5074544;28;20082;-69
2022/08/11 02:27:21;;;;;;;68.05;53.60;;;17.10;99.90;;;;;;5087333;28;20565;-69
2022/08/11 02:30:23;;;;;;;76.50;56.15;;;17.20;99.90;;;;;;5062602;28;20047;-69
2022/08/11 02:36:11;;;;;;;68.03;52.30;;;17.00;99.90;;;;;;5086344;28;20088;-69
2022/08/11 02:38:46;;;;;;;73.57;53.60;;;17.00;99.90;;;;;;5087351;28;20553;-69
2022/08/11 02:44:57;;;;;;;61.58;47.85;;;17.00;99.90;;;;;;5057356;28;20043;-69
2022/08/11 02:49:52;;;;;;;63.58;49.50;;;17.00;99.90;;;;;;5056310;28;20293;-69
2022/08/11 02:51:01;;;;;;;68.35;49.78;;;17.00;99.90;;;;;;5090492;28;20351;-69
2022/08/11 02:53:41;;;;;;;61.28;48.17;;;16.90;99.90;;;;;;5083523;28;20077;-69
2022/08/11 02:56:36;;;;;;;54.38;45.13;;;16.90;99.90;;;;;;5072072;28;20280;-69
2022/08/11 03:02:11;;;;;;;53.67;43.53;;;16.80;99.90;;;;;;5089202;28;20687;-69
2022/08/11 03:04:59;;;;;;;56.30;44.83;;;16.90;99.90;;;;;;5070601;28;20050;-69
2022/08/11 03:07:40;;;;;;;57.13;43.58;;;16.90;99.90;;;;;;5090740;28;20043;-69
2022/08/11 03:10:26;;;;;;;53.03;42.45;;;16.80;99.90;;;;;;5089287;28;20042;-69
2022/08/11 03:19:39;;;;;;;46.15;40.17;;;16.80;99.90;;;;;;5087938;28;20047;-69
2022/08/11 03:22:28;;;;;;;47.17;37.83;;;16.80;99.90;;;;;;5080326;28;20248;-69
2022/08/11 03:25:00;;;;;;;48.25;37.67;;;16.60;99.90;;;;;;5090057;28;20044;-69
2022/08/11 03:27:46;;;;;;;47.25;36.83;;;16.60;99.90;;;;;;5091819;28;20039;-69
2022/08/11 03:30:35;;;;;;;43.55;32.00;;;16.50;99.90;;;;;;5092052;28;20341;-70
2022/08/11 03:36:26;;;;;;;40.53;29.70;;;16.50;99.90;;;;;;5092234;28;20054;-70
2022/08/11 03:39:08;;;;;;;36.00;27.48;;;16.50;99.90;;;;;;5092907;28;20491;-69
2022/08/11 03:41:43;;;;;;;36.30;25.92;;;16.50;99.90;;;;;;5071080;28;20126;-69
2022/08/11 03:44:30;;;;;;;33.22;26.92;;;16.50;99.90;;;;;;5081585;28;20039;-69
2022/08/11 03:47:06;;;;;;;31.08;24.92;;;16.40;99.90;;;;;;5073364;28;20096;-69
2022/08/11 03:50:11;;;;;;;30.30;25.73;;;16.40;99.90;;;;;;5071680;28;20126;-69
2022/08/11 03:53:11;;;;;;;31.88;25.05;;;16.30;99.90;;;;;;5090756;28;20400;-69
2022/08/11 03:55:46;;;;;;;34.47;26.50;;;16.30;99.90;;;;;;5090500;28;20223;-70
2022/08/11 03:58:35;;;;;;;33.63;24.30;;;16.40;99.90;;;;;;5090879;28;20325;-70
2022/08/11 04:01:38;;;;;;;32.78;24.85;;;16.30;99.90;;;;;;5063311;27;20530;-70
2022/08/11 04:04:51;;;;;;;32.30;26.10;;;16.40;99.90;;;;;;5069246;27;20047;-70
2022/08/11 04:07:48;;;;;;;34.53;24.60;;;16.30;99.90;;;;;;5032908;28;20063;-70
2022/08/11 04:10:51;;;;;;;35.45;25.80;;;16.30;99.90;;;;;;5004762;28;20044;-70
2022/08/11 04:13:38;;;;;;;30.08;25.17;;;16.30;99.90;;;;;;5072109;27;20094;-70
2022/08/11 04:16:14;;;;;;;31.63;25.80;;;16.30;99.90;;;;;;5093863;27;20046;-70
2022/08/11 04:19:09;;;;;;;33.13;25.77;;;16.40;99.90;;;;;;5112524;27;20465;-69
2022/08/11 04:22:13;;;;;;;26.10;22.48;;;16.40;99.90;;;;;;5094732;27;20043;-69
2022/08/11 04:25:07;;;;;;;;;;;16.40;99.90;;;;;;5088860;27;20951;-70
2022/08/11 04:27:51;;;;;;;23.20;18.80;;;16.50;99.90;;;;;;5095020;27;19991;-70
2022/08/11 04:30:42;;;;;;;24.98;18.90;;;16.50;99.90;;;;;;5093944;27;20513;-69
2022/08/11 04:33:45;;;;;;;18.63;16.40;;;16.50;99.90;;;;;;5084030;27;20038;-69
2022/08/11 04:37:33;;;;;;;17.45;14.45;;;16.40;99.90;;;;;;5067191;27;20035;-69
2022/08/11 04:40:05;;;;;;;17.00;14.90;;;16.40;99.90;;;;;;5082186;27;20082;-69
2022/08/11 04:45:27;;;;;;;16.33;14.23;;;16.50;99.90;;;;;;5108644;27;20587;-68
2022/08/11 05:03:09;;;;;;;15.30;11.68;;;16.80;99.90;;;;;;5091042;27;20091;-69
2022/08/11 05:06:13;;;;;;;16.02;11.57;;;16.90;99.90;;;;;;5091348;27;20039;-70
2022/08/11 05:09:16;;;;;;;13.20;11.95;;;16.90;99.90;;;;;;5093735;27;20549;-69
2022/08/11 05:12:08;;;;;;;14.33;11.30;;;17.00;99.90;;;;;;5092250;27;20127;-70
2022/08/11 05:35:40;;;;;;;6.75;4.22;;;18.20;99.90;;;;;;5091030;27;20710;-69
2022/08/11 05:57:59;;;;;;;4.78;3.72;;;20.00;99.90;;;;;;5074541;28;20047;-69
2022/08/11 06:00:26;;;;;;;4.55;3.47;;;20.10;99.90;;;;;;5063150;28;20175;-68
2022/08/11 06:03:00;;;;;;;5.97;3.63;;;20.20;99.90;;;;;;5088169;28;20517;-70
2022/08/11 06:05:37;;;;;;;5.63;3.58;;;20.40;99.90;;;;;;5062730;28;20078;-69
2022/08/11 06:08:05;;;;;;;4.90;3.35;;;20.50;99.90;;;;;;5076790;28;20035;-68
2022/08/11 06:10:34;;;;;;;4.97;3.60;;;20.60;99.90;;;;;;5070268;28;20655;-69
2022/08/11 06:13:01;;;;;;;5.55;3.67;;;20.70;99.90;;;;;;5089035;28;20104;-69
2022/08/11 06:15:29;;;;;;;5.35;3.25;;;20.70;99.90;;;;;;5087902;28;20481;-69
2022/08/11 06:17:57;;;;;;;7.65;3.10;;;20.80;99.90;;;;;;5070034;28;20050;-68
2022/08/11 06:20:24;;;;;;;4.05;3.20;;;21.00;99.90;;;;;;5090660;27;20105;-68
2022/08/11 06:23:00;;;;;;;4.35;2.70;;;21.10;99.90;;;;;;5092848;27;20035;-69
2022/08/11 06:25:31;;;;;;;4.72;3.05;;;21.20;99.90;;;;;;5115677;27;20054;-68
2022/08/11 06:27:58;;;;;;;4.00;3.00;;;21.20;99.90;;;;;;5094730;27;20492;-69
2022/08/11 06:30:39;;;;;;;5.60;2.75;;;21.30;99.90;;;;;;5077685;27;20035;-69
2022/08/11 06:33:30;;;;;;;4.10;2.45;;;21.40;99.90;;;;;;5094738;27;20035;-69
2022/08/11 06:36:15;;;;;;;3.97;2.50;;;21.50;99.90;;;;;;5094565;27;20479;-69
2022/08/11 06:39:21;;;;;;;3.38;2.08;;;21.60;99.90;;;;;;5093592;27;20040;-69
2022/08/11 06:42:02;;;;;;;5.85;2.63;;;21.60;99.90;;;;;;5080645;27;20098;-69
2022/08/11 06:45:07;;;;;;;3.17;1.85;;;21.70;99.90;;;;;;5097363;27;20078;-69
2022/08/11 06:47:34;;;;;;;4.45;2.10;;;21.80;99.90;;;;;;5077856;27;20100;-69
2022/08/11 06:52:46;;;;;;;5.05;2.20;;;21.90;99.90;;;;;;5096397;27;20463;-68
2022/08/11 07:00:26;;;;;;;4.32;2.30;;;21.90;99.90;;;;;;5076461;27;20035;-69
2022/08/11 07:01:07;;;;;;;5.00;2.13;;;22.00;99.90;;;;;;5111852;27;20324;-69
2022/08/11 07:03:39;;;;;;;4.40;2.30;;;22.00;99.90;;;;;;5093688;27;20104;-69
2022/08/11 07:06:33;;;;;;;2.80;1.90;;;22.10;99.90;;;;;;5093760;27;20514;-69
2022/08/11 07:15:42;;;;;;;3.58;2.13;;;22.30;99.90;;;;;;5092576;27;20039;-69
2022/08/11 07:29:30;;;;;;;2.97;1.80;;;23.00;99.90;;;;;;5093327;27;20134;-68
2022/08/11 07:32:02;;;;;;;4.70;2.03;;;23.30;99.90;;;;;;5093060;27;20084;-69
2022/08/11 07:34:34;;;;;;;4.37;1.90;;;23.60;99.90;;;;;;5093725;27;20566;-68
2022/08/11 07:37:08;;;;;;;3.97;2.05;;;23.70;99.90;;;;;;5093411;27;20043;-70
2022/08/11 07:39:36;;;;;;;2.45;2.13;;;23.80;99.90;;;;;;5093307;27;20042;-68
2022/08/11 07:42:12;;;;;;;5.38;2.35;;;23.90;99.90;;;;;;5070197;27;20500;-68
2022/08/11 07:53:06;;;;;;;3.70;2.40;;;24.00;99.90;;;;;;5092897;27;20121;-68
2022/08/11 07:55:34;;;;;;;4.55;2.92;;;24.00;99.90;;;;;;5091144;27;20515;-68
2022/08/11 08:20:08;;;;;;;3.45;2.10;;;24.50;99.90;;;;;;5091645;27;20047;-68
2022/08/11 08:22:35;;;;;;;4.10;2.00;;;24.40;99.90;;;;;;5093526;27;20570;-68
2022/08/11 08:25:01;;;;;;;5.10;2.38;;;24.70;99.90;;;;;;5092640;27;20043;-68
2022/08/11 08:27:27;;;;;;;3.13;1.85;;;24.80;99.90;;;;;;5110565;27;20487;-69
2022/08/11 08:32:40;;;;;;;4.95;2.10;;;25.20;99.90;;;;;;5092068;27;20334;-69
2022/08/11 08:35:09;;;;;;;2.95;2.10;;;25.30;99.90;;;;;;5092268;27;20047;-69
2022/08/11 08:37:34;;;;;;;4.45;2.22;;;25.40;99.90;;;;;;5075978;27;20047;-68
2022/08/11 08:40:01;;;;;;;4.40;2.10;;;25.40;99.90;;;;;;5093592;27;20050;-68
2022/08/11 08:42:29;;;;;;;5.03;1.80;;;25.50;99.90;;;;;;5091677;27;20135;-68
2022/08/11 08:45:03;;;;;;;2.90;1.90;;;25.50;99.90;;;;;;5093274;27;20081;-69
2022/08/11 08:47:34;;;;;;;4.45;2.50;;;25.50;99.90;;;;;;5077375;27;20489;-68
2022/08/11 08:50:04;;;;;;;3.92;1.90;;;25.50;99.90;;;;;;5092780;27;20039;-69
2022/08/11 08:52:39;;;;;;;3.22;1.75;;;25.50;99.90;;;;;;5090602;27;20039;-70
2022/08/11 08:55:06;;;;;;;5.05;2.10;;;25.60;99.90;;;;;;5093850;27;20791;-69
2022/08/11 08:57:34;;;;;;;5.05;1.90;;;25.80;99.90;;;;;;5075617;27;20043;-69
2022/08/11 09:00:01;;;;;;;3.10;1.90;;;25.90;99.90;;;;;;5091846;27;20130;-67
2022/08/11 09:02:27;;;;;;;3.28;1.50;;;26.00;99.90;;;;;;5076040;27;20465;-68
2022/08/11 09:04:53;;;;;;;2.97;2.13;;;26.20;99.90;;;;;;5111564;27;20550;-68
2022/08/11 09:07:22;;;;;;;2.63;1.30;;;26.20;99.90;;;;;;5075484;27;20429;-70
2022/08/11 09:09:51;;;;;;;5.47;1.45;;;26.30;99.90;;;;;;5093814;28;20039;-67
2022/08/11 09:12:19;;;;;;;2.90;1.40;;;26.40;99.90;;;;;;5111991;27;20449;-67
2022/08/11 09:15:03;;;;;;;2.85;1.02;;;26.50;99.90;;;;;;5076475;27;20335;-67
2022/08/11 09:17:37;;;;;;;3.85;1.20;;;26.60;99.90;;;;;;5094190;27;20047;-68
2022/08/11 09:20:11;;;;;;;2.25;0.85;;;26.80;99.90;;;;;;5075241;27;20586;-68
2022/08/11 09:28:16;;;;;;;4.80;0.95;;;27.10;99.90;;;;;;5090997;27;20487;-67
2022/08/11 09:30:52;;;;;;;4.55;1.00;;;27.20;99.90;;;;;;5092287;27;20557;-68
2022/08/11 09:33:19;;;;;;;4.25;0.88;;;27.40;99.90;;;;;;5076350;27;20073;-68
2022/08/11 09:35:48;;;;;;;2.55;0.60;;;27.60;99.90;;;;;;5091104;27;20535;-69
2022/08/11 09:41:04;;;;;;;4.28;0.50;;;28.00;99.90;;;;;;5090266;27;20069;-68
2022/08/11 09:46:15;;;;;;;2.33;1.27;;;28.20;99.90;;;;;;5108150;27;20074;-68
2022/08/11 09:48:44;;;;;;;3.75;0.75;;;28.50;99.90;;;;;;5090961;28;20452;-68
2022/08/11 09:51:11;;;;;;;5.40;1.00;;;28.90;99.90;;;;;;5092668;28;20050;-67
2022/08/11 09:53:40;;;;;;;4.40;0.80;;;28.90;99.90;;;;;;5092913;28;20311;-68
2022/08/11 09:59:06;;;;;;;4.38;0.75;;;29.20;99.90;;;;;;5094906;27;20438;-68
2022/08/11 10:01:46;;;;;;;3.60;0.98;;;29.30;99.90;;;;;;5114608;27;20043;-69
2022/08/11 10:04:15;;;;;;;4.40;1.05;;;29.40;99.90;;;;;;5094152;27;20070;-69
2022/08/11 10:09:47;;;;;;;5.32;1.88;;;29.40;99.90;;;;;;5095580;27;20058;-68
2022/08/11 10:12:23;;;;;;;3.42;1.60;;;29.80;99.90;;;;;;5066895;27;20047;-68
2022/08/11 10:20:31;;;;;;;4.53;2.00;;;30.20;99.90;;;;;;5095874;27;20153;-68
2022/08/11 10:28:28;;;;;;;4.10;1.50;;;30.40;98.00;;;;;;5095271;27;20645;-69
2022/08/11 10:33:59;;;;;;;3.08;0.80;;;30.20;99.90;;;;;;5095255;27;20042;-71
2022/08/11 10:36:27;;;;;;;4.70;1.50;;;30.70;95.70;;;;;;5095325;27;20119;-69
2022/08/11 10:38:54;;;;;;;4.00;1.95;;;30.50;98.10;;;;;;5094919;27;20473;-69
2022/08/11 10:44:07;;;;;;;3.38;0.98;;;30.90;97.80;;;;;;5096719;27;20043;-69
2022/08/11 10:49:20;;;;;;;3.05;0.80;;;31.20;93.60;;;;;;5094810;27;20292;-69
2022/08/11 11:00:05;;;;;;;4.10;0.70;;;31.70;90.50;;;;;;5094455;27;20202;-68
2022/08/11 11:02:32;;;;;;;5.88;0.90;;;31.70;90.10;;;;;;5076942;27;20043;-69
2022/08/11 11:05:29;;;;;;;4.63;0.70;;;31.60;91.10;;;;;;5076639;27;20472;-68
2022/08/11 11:08:51;;;;;;;2.83;0.43;;;31.90;87.80;;;;;;5111318;27;20261;-68
2022/08/11 11:10:57;;;;;;;4.15;0.50;;;31.90;85.30;;;;;;5093409;27;20110;-68
2022/08/11 11:18:57;;;;;;;2.58;0.30;;;32.00;75.80;;;;;;5094429;27;20527;-69
2022/08/11 11:21:24;;;;;;;1.65;0.38;;;32.30;74.90;;;;;;5096409;27;20043;-67
2022/08/11 11:24:03;;;;;;;3.83;0.57;;;32.60;76.20;;;;;;5093407;27;20039;-68
2022/08/11 11:26:55;;;;;;;2.53;0.30;;;32.70;76.60;;;;;;5094342;27;20243;-68
2022/08/11 11:29:45;;;;;;;3.15;0.50;;;32.40;71.10;;;;;;5093544;27;20043;-68
2022/08/11 11:32:39;;;;;;;4.05;0.95;;;31.70;88.60;;;;;;5093561;27;20034;-69
2022/08/11 11:35:20;;;;;;;4.68;1.75;;;31.60;94.50;;;;;;5093455;27;20050;-68
2022/08/11 11:37:48;;;;;;;2.45;0.60;;;31.80;96.90;;;;;;5068034;27;20042;-68
2022/08/11 11:40:20;;;;;;;5.82;0.80;;;31.60;87.50;;;;;;5076894;27;20604;-68
2022/08/11 11:42:47;;;;;;;4.50;1.02;;;31.40;89.10;;;;;;5094009;27;20082;-68
2022/08/11 11:45:18;;;;;;;4.40;1.40;;;31.30;95.60;;;;;;5094053;27;20384;-68
2022/08/11 11:47:45;;;;;;;4.10;1.38;;;31.40;97.40;;;;;;5064932;27;20448;-67
2022/08/11 11:50:12;;;;;;;4.20;1.40;;;31.70;98.20;;;;;;5093405;27;20320;-69
2022/08/11 11:52:39;;;;;;;3.17;1.40;;;31.50;99.90;;;;;;5093365;27;20116;-68
2022/08/11 11:55:06;;;;;;;7.30;1.45;;;31.40;99.90;;;;;;5111847;27;20492;-67
2022/08/11 12:03:08;;;;;;;5.15;1.40;;;31.50;91.70;;;;;;5111979;27;20062;-68
2022/08/11 12:05:36;;;;;;;2.70;1.27;;;31.20;96.60;;;;;;5092891;27;20528;-69
2022/08/11 12:08:10;;;;;;;4.65;1.50;;;31.50;96.20;;;;;;5094441;27;20039;-68
2022/08/11 12:10:38;;;;;;;4.25;1.30;;;31.30;95.00;;;;;;5093910;27;20119;-68
2022/08/11 12:15:50;;;;;;;3.38;0.98;;;31.00;96.40;;;;;;5093000;27;20083;-68
2022/08/11 12:18:17;;;;;;;6.03;1.25;;;31.20;95.20;;;;;;5092966;27;20047;-68
2022/08/11 12:20:44;;;;;;;6.30;1.20;;;30.90;95.70;;;;;;5092777;27;20472;-67
2022/08/11 12:28:42;;;;;;;7.65;1.70;;;31.30;98.10;;;;;;5093692;27;20042;-70
2022/08/11 12:31:11;;;;;;;5.40;1.35;;;31.20;97.90;;;;;;5094022;27;20322;-67
2022/08/11 12:33:39;;;;;;;5.35;1.50;;;31.30;98.70;;;;;;5092432;27;20039;-68
2022/08/11 12:36:08;;;;;;;3.55;1.48;;;31.00;99.90;;;;;;5084875;27;20038;-69
2022/08/11 12:38:35;;;;;;;5.47;1.15;;;30.90;99.70;;;;;;5079599;27;20406;-69
2022/08/11 12:46:37;;;;;;;4.95;1.30;;;31.00;98.00;;;;;;5085722;27;20355;-71
2022/08/11 12:52:10;;;;;;;4.57;0.85;;;30.60;97.60;;;;;;5099954;27;20677;-69
2022/08/11 12:54:53;;;;;;;3.17;0.60;;;31.00;97.20;;;;;;5074947;27;20204;-70
2022/08/11 13:05:53;;;;;;;3.55;0.47;;;31.30;93.90;;;;;;5097717;27;20075;-68
2022/08/11 13:08:24;;;;;;;4.13;0.40;;;31.10;91.20;;;;;;5097853;27;20087;-69
2022/08/11 13:13:41;;;;;;;2.45;0.38;;;30.90;88.20;;;;;;5099034;27;20265;-69
2022/08/11 13:16:08;;;;;;;4.57;0.40;;;31.10;88.10;;;;;;5099403;27;20151;-69
2022/08/11 13:18:34;;;;;;;2.00;0.30;;;31.30;87.30;;;;;;5082129;27;20125;-69
2022/08/11 13:21:01;;;;;;;2.72;0.30;;;31.00;87.80;;;;;;5098599;27;20114;-69
2022/08/11 13:23:28;;;;;;;4.80;0.60;;;31.00;87.70;;;;;;5098028;27;20296;-69
2022/08/11 13:25:55;;;;;;;2.85;0.40;;;31.30;87.10;;;;;;5098367;27;20039;-69
2022/08/11 13:28:24;;;;;;;4.22;0.40;;;31.70;85.50;;;;;;5098677;27;20063;-69
2022/08/11 13:33:44;;;;;;;1.90;0.40;;;31.90;83.40;;;;;;5099320;27;20532;-69
2022/08/11 13:36:11;;;;;;;2.65;0.50;;;31.90;81.50;;;;;;5099837;28;20050;-69
2022/08/11 13:38:40;;;;;;;3.25;0.52;;;32.00;84.20;;;;;;5082496;27;20130;-70
2022/08/11 13:41:36;;;;;;;1.02;0.38;;;32.30;80.50;;;;;;5117864;27;20039;-70
2022/08/11 13:43:53;;;;;;;4.72;0.40;;;32.50;81.10;;;;;;5103213;27;20401;-70
2022/08/11 13:46:23;;;;;;;3.47;0.30;;;32.60;80.80;;;;;;5098446;28;20050;-69
2022/08/11 13:48:51;;;;;;;3.38;0.40;;;33.00;79.50;;;;;;5064605;28;20423;-69
2022/08/11 13:51:32;;;;;;;3.25;0.40;;;33.20;76.30;;;;;;5098373;28;20062;-70
2022/08/11 13:54:01;;;;;;;4.45;0.50;;;33.00;75.20;;;;;;5098311;28;20342;-69
2022/08/11 13:56:27;;;;;;;2.60;0.40;;;33.20;74.40;;;;;;5098069;28;20444;-70
2022/08/11 13:58:54;;;;;;;4.13;0.50;;;33.40;73.10;;;;;;5097599;28;20727;-69
2022/08/11 14:01:23;;;;;;;2.75;0.30;;;33.50;69.90;;;;;;5097808;28;20231;-71
2022/08/11 14:03:49;;;;;;;2.90;0.40;;;33.50;67.50;;;;;;5096784;28;20058;-69
2022/08/11 14:06:18;;;;;;;1.80;0.32;;;33.50;68.20;;;;;;5096856;28;20089;-69
2022/08/11 14:08:44;;;;;;;2.47;0.30;;;33.30;67.00;;;;;;5096919;28;20067;-70
2022/08/11 14:13:57;;;;;;;1.30;0.30;;;34.10;61.70;;;;;;5099179;28;20285;-69
2022/08/11 14:16:30;;;;;;;2.10;0.30;;;34.40;62.10;;;;;;5099576;28;20120;-70
2022/08/11 14:19:03;;;;;;;1.67;0.43;;;33.80;61.50;;;;;;5099499;28;20050;-69
2022/08/11 14:24:17;;;;;;;3.83;0.38;;;32.70;63.10;;;;;;5099412;28;20318;-68
2022/08/11 14:26:45;;;;;;;2.58;0.30;;;32.40;69.50;;;;;;5080119;28;20377;-67
2022/08/11 14:29:18;;;;;;;5.15;0.50;;;33.00;67.90;;;;;;5095016;28;20183;-68
2022/08/11 14:31:56;;;;;;;1.83;0.30;;;33.30;67.20;;;;;;5099388;28;20043;-69
2022/08/11 14:34:25;;;;;;;2.35;0.30;;;33.30;61.30;;;;;;5099650;28;20133;-68
2022/08/11 14:36:57;;;;;;;1.58;0.40;;;33.20;61.50;;;;;;5100411;28;20051;-69
2022/08/11 14:39:27;;;;;;;;;;;32.90;61.50;;;;;;5080803;27;20150;-69
2022/08/11 14:47:36;;;;;;;1.95;0.30;;;33.60;59.40;;;;;;5094063;27;20344;-68
2022/08/11 14:50:04;;;;;;;2.83;0.30;;;33.50;59.60;;;;;;5092487;27;20078;-69
2022/08/11 14:52:35;;;;;;;7.47;0.40;;;33.40;57.30;;;;;;5081395;27;20042;-71
2022/08/11 14:57:48;;;;;;;1.80;0.30;;;33.60;56.80;;;;;;5085191;27;20770;-70
2022/08/11 15:00:15;;;;;;;1.50;0.60;;;33.70;57.00;;;;;;5089941;28;20102;-72
2022/08/11 15:05:27;;;;;;;3.03;0.30;;;33.70;60.60;;;;;;5091520;28;20109;-68
2022/08/11 15:07:54;;;;;;;2.17;0.25;;;33.50;62.60;;;;;;5068719;28;20043;-68
2022/08/11 15:10:21;;;;;;;4.35;0.30;;;33.60;63.00;;;;;;5064589;28;20663;-68
2022/08/11 15:12:47;;;;;;;2.80;0.30;;;34.00;60.20;;;;;;5083223;27;20036;-68
2022/08/11 15:18:03;;;;;;;2.45;0.35;;;34.00;59.90;;;;;;5094023;28;20047;-68
2022/08/11 15:26:11;;;;;;;1.88;0.30;;;33.90;59.80;;;;;;5090932;28;20051;-69
2022/08/11 15:48:11;;;;;;;2.75;0.40;;;33.10;61.30;;;;;;5073855;28;20508;-68
2022/08/11 15:50:47;;;;;;;2.40;0.30;;;32.80;60.30;;;;;;5088242;28;20199;-69
2022/08/11 15:53:31;;;;;;;1.88;0.28;;;32.80;60.30;;;;;;5086999;28;20050;-69
2022/08/11 15:55:59;;;;;;;2.35;0.30;;;33.00;60.50;;;;;;5087914;28;20156;-68
2022/08/11 16:04:13;;;;;;;6.10;0.40;;;32.60;63.30;;;;;;5090974;27;20696;-70
2022/08/11 16:06:46;;;;;;;3.05;0.40;;;32.40;61.00;;;;;;5088311;27;20046;-70
2022/08/11 16:09:14;;;;;;;4.95;0.43;;;32.30;63.90;;;;;;5088706;27;20039;-68
2022/08/11 16:11:41;;;;;;;3.42;0.38;;;32.20;64.30;;;;;;5075027;27;20622;-69
2022/08/11 16:17:05;;;;;;;1.13;0.28;;;32.60;61.80;;;;;;5073099;27;20501;-69
2022/08/11 16:19:35;;;;;;;2.58;0.40;;;32.30;61.70;;;;;;5090386;27;20108;-69
2022/08/11 16:22:06;;;;;;;2.40;0.70;;;32.30;65.00;;;;;;5075016;27;20042;-69
2022/08/11 16:24:35;;;;;;;1.85;0.30;;;32.70;62.00;;;;;;5090399;27;20114;-69
2022/08/11 16:27:02;;;;;;;3.72;0.40;;;33.20;53.70;;;;;;5089457;27;20501;-69
2022/08/11 16:29:30;;;;;;;1.13;0.30;;;33.40;48.60;;;;;;5075458;27;20042;-69
2022/08/11 16:40:19;;;;;;;3.22;0.40;;;33.20;46.00;;;;;;5094196;27;20305;-69
2022/08/11 16:48:20;;;;;;;2.72;0.30;;;33.40;46.00;;;;;;5091516;27;20617;-69
2022/08/11 16:50:46;;;;;;;2.08;0.32;;;33.00;46.80;;;;;;5092787;27;20453;-70
2022/08/11 16:53:16;;;;;;;1.45;0.30;;;32.70;49.80;;;;;;5067578;27;20035;-69
2022/08/11 16:55:47;;;;;;;1.98;0.40;;;32.80;49.90;;;;;;5075735;27;20134;-68
2022/08/11 17:01:00;;;;;;;2.38;0.30;;;32.60;52.70;;;;;;5091317;27;20381;-68
2022/08/11 17:14:43;;;;;;;3.72;0.50;;;32.00;51.00;;;;;;5086253;27;20116;-69
2022/08/11 17:17:22;;;;;;;1.38;0.30;;;31.80;50.80;;;;;;5090139;27;20054;-68
2022/08/11 17:19:51;;;;;;;0.98;0.20;;;31.70;50.70;;;;;;5090430;27;20066;-68
2022/08/11 17:25:05;;;;;;;4.63;0.38;;;31.10;53.30;;;;;;5108912;27;20535;-67
2022/08/11 17:27:32;;;;;;;3.53;0.50;;;31.30;57.10;;;;;;5090426;27;20046;-67
2022/08/11 17:30:02;;;;;;;3.03;0.40;;;31.40;55.70;;;;;;5091979;27;20046;-68
2022/08/11 17:35:30;;;;;;;2.28;0.40;;;31.00;58.60;;;;;;5095094;27;20593;-68
2022/08/11 17:38:07;;;;;;;3.55;0.40;;;30.80;57.90;;;;;;5093490;27;20047;-69
2022/08/11 17:40:37;;;;;;;1.42;0.30;;;30.50;55.60;;;;;;5091976;27;20364;-69
2022/08/11 17:48:39;;;;;;;4.68;0.30;;;29.90;64.70;;;;;;5095807;28;20190;-69
2022/08/11 17:51:10;;;;;;;5.22;0.40;;;29.70;67.90;;;;;;5090509;27;20302;-68
2022/08/11 18:04:52;;;;;;;4.18;0.35;;;28.60;75.70;;;;;;5096302;28;20047;-69
